Time;durP1;ratioP1;P1;durP2;ratioP2;P2;SDS_P1;SDS_P2;PMS_P1;PMS_P2;Temp;Humidity;BMP_temperature;BMP_pressure;BME280_temperature;BME280_humidity;BME280_pressure;Samples;Min_cycle;Max_cycle;Signal;HPM_P1;HPM_P2
2022/01/22 00:01:48;;;;;;;5.72;2.38;;;7.20;84.40;;;;;;5081510;28;20035;-83
2022/01/22 00:04:14;;;;;;;5.47;2.08;;;7.20;84.40;;;;;;5073797;28;20110;-84
2022/01/22 00:06:40;;;;;;;5.85;2.10;;;7.20;84.40;;;;;;5079095;28;20028;-84
2022/01/22 00:09:06;;;;;;;7.05;2.35;;;7.10;84.40;;;;;;5082207;28;20027;-81
2022/01/22 00:11:37;;;;;;;6.95;2.40;;;7.20;84.60;;;;;;5080409;28;20028;-83
2022/01/22 00:16:47;;;;;;;6.45;2.30;;;7.20;84.40;;;;;;5080140;28;20047;-83
2022/01/22 00:19:13;;;;;;;6.60;2.17;;;7.20;84.40;;;;;;5075578;28;20182;-83
2022/01/22 00:21:38;;;;;;;6.60;2.28;;;7.20;84.50;;;;;;5080860;28;20055;-83
2022/01/22 00:24:06;;;;;;;4.97;2.10;;;7.20;84.50;;;;;;5070118;28;20056;-83
2022/01/22 00:26:31;;;;;;;3.17;1.95;;;7.20;84.40;;;;;;5077752;28;20052;-85
2022/01/22 00:28:57;;;;;;;4.35;1.75;;;7.20;84.40;;;;;;5079042;28;20052;-83
2022/01/22 00:31:23;;;;;;;4.30;2.30;;;7.30;84.40;;;;;;5081305;28;20381;-81
2022/01/22 00:33:48;;;;;;;12.10;2.40;;;7.30;84.40;;;;;;5078948;28;20028;-82
2022/01/22 00:36:14;;;;;;;6.05;2.28;;;7.30;84.40;;;;;;5077821;28;20751;-81
2022/01/22 00:38:39;;;;;;;7.57;2.20;;;7.30;84.40;;;;;;5070259;28;20029;-81
2022/01/22 00:41:05;;;;;;;6.93;2.22;;;7.30;84.40;;;;;;5070899;28;20365;-82
2022/01/22 00:43:31;;;;;;;8.70;2.13;;;7.30;84.40;;;;;;5070266;28;20024;-82
2022/01/22 00:45:56;;;;;;;5.45;2.15;;;7.30;84.40;;;;;;5070493;28;20036;-81
2022/01/22 00:48:22;;;;;;;4.68;2.20;;;7.30;84.40;;;;;;5065230;28;20031;-82
2022/01/22 00:50:51;;;;;;;5.25;2.38;;;7.30;84.40;;;;;;5070613;28;20032;-82
2022/01/22 00:53:16;;;;;;;4.10;2.00;;;7.30;84.40;;;;;;5064466;28;20017;-82
2022/01/22 00:55:42;;;;;;;7.20;2.20;;;7.30;84.60;;;;;;5070967;28;20391;-82
2022/01/22 00:58:08;;;;;;;6.45;2.30;;;7.30;84.60;;;;;;5065928;28;20018;-82
2022/01/22 01:00:33;;;;;;;8.65;2.38;;;7.30;84.60;;;;;;5056447;28;20025;-83
2022/01/22 01:02:59;;;;;;;7.10;2.53;;;7.30;84.60;;;;;;5067230;28;20016;-82
2022/01/22 01:05:25;;;;;;;7.65;2.10;;;7.30;84.50;;;;;;5065806;28;20025;-84
2022/01/22 01:07:50;;;;;;;3.95;2.20;;;7.40;84.60;;;;;;5070080;28;20028;-84
2022/01/22 01:10:17;;;;;;;4.93;2.38;;;7.40;84.50;;;;;;5069914;28;20025;-84
2022/01/22 01:12:44;;;;;;;6.05;2.00;;;7.40;84.60;;;;;;5065379;28;20020;-84
2022/01/22 01:15:36;;;;;;;6.30;2.20;;;7.40;84.60;;;;;;5063555;28;20383;-82
2022/01/22 01:34:29;;;;;;;5.22;2.25;;;7.40;84.60;;;;;;5070589;28;20078;-83
2022/01/22 01:36:54;;;;;;;4.93;2.05;;;7.40;84.70;;;;;;5062774;28;20029;-83
2022/01/22 01:39:26;;;;;;;4.00;2.00;;;7.40;84.80;;;;;;5067222;28;20029;-83
2022/01/22 01:42:01;;;;;;;5.75;2.50;;;7.40;84.80;;;;;;5067064;28;20044;-83
2022/01/22 01:44:27;;;;;;;4.78;2.38;;;7.40;84.80;;;;;;5061854;28;20059;-82
2022/01/22 01:46:58;;;;;;;7.15;2.58;;;7.40;84.90;;;;;;5069345;28;20048;-82
2022/01/22 01:49:25;;;;;;;4.75;2.30;;;7.40;84.80;;;;;;5057260;28;20075;-81
2022/01/22 01:51:53;;;;;;;5.47;2.38;;;7.40;84.80;;;;;;5062751;28;20028;-81
2022/01/22 01:59:37;;;;;;;6.05;2.28;;;7.40;84.80;;;;;;5070369;28;20043;-81
2022/01/22 02:02:03;;;;;;;6.30;2.58;;;7.40;85.00;;;;;;5067433;28;20024;-81
2022/01/22 02:04:29;;;;;;;6.55;2.25;;;7.40;85.00;;;;;;5067995;28;20441;-81
2022/01/22 02:06:56;;;;;;;6.97;2.45;;;7.40;85.00;;;;;;5063340;28;20020;-81
2022/01/22 02:09:21;;;;;;;5.30;2.67;;;7.40;85.00;;;;;;5063215;28;20044;-82
2022/01/22 02:11:56;;;;;;;5.28;2.78;;;7.40;85.10;;;;;;5067702;28;20025;-81
2022/01/22 02:25:03;;;;;;;6.13;2.60;;;7.50;85.60;;;;;;5062884;28;20107;-81
2022/01/22 02:27:31;;;;;;;5.35;2.40;;;7.50;85.00;;;;;;5055308;28;20049;-81
2022/01/22 02:29:56;;;;;;;8.95;3.35;;;7.50;85.10;;;;;;5059423;28;20031;-81
2022/01/22 02:35:27;;;;;;;5.18;2.22;;;7.50;85.10;;;;;;5062366;28;20047;-81
2022/01/22 02:37:59;;;;;;;7.82;2.63;;;7.50;85.10;;;;;;5067428;28;20467;-81
2022/01/22 02:40:40;;;;;;;8.00;2.88;;;7.50;85.20;;;;;;5070499;28;20025;-82
2022/01/22 02:43:06;;;;;;;5.72;2.67;;;7.50;85.30;;;;;;5068938;28;20107;-82
2022/01/22 02:45:32;;;;;;;7.00;2.70;;;7.50;85.30;;;;;;5066764;28;20444;-85
2022/01/22 02:47:58;;;;;;;6.20;2.35;;;7.50;85.30;;;;;;5074403;28;20024;-84
2022/01/22 02:50:23;;;;;;;4.97;2.03;;;7.50;85.30;;;;;;5075089;28;20043;-86
2022/01/22 02:52:49;;;;;;;6.38;2.38;;;7.50;85.30;;;;;;5074109;28;20024;-82
2022/01/22 02:55:15;;;;;;;8.30;2.47;;;7.50;85.30;;;;;;5075398;28;20032;-83
2022/01/22 02:57:43;;;;;;;6.80;2.45;;;7.60;85.40;;;;;;5075625;28;20537;-83
2022/01/22 03:00:13;;;;;;;7.28;2.65;;;7.50;85.30;;;;;;5073538;28;20024;-83
2022/01/22 03:02:39;;;;;;;8.45;3.00;;;7.60;85.30;;;;;;5076347;28;20028;-82
2022/01/22 03:05:06;;;;;;;4.40;2.30;;;7.50;85.30;;;;;;5075476;28;20086;-82
2022/01/22 03:07:32;;;;;;;6.20;2.50;;;7.60;85.50;;;;;;5074172;28;20030;-82
2022/01/22 03:10:01;;;;;;;6.55;2.80;;;7.60;85.40;;;;;;5074318;28;20031;-82
2022/01/22 03:23:09;;;;;;;5.85;2.45;;;7.70;85.40;;;;;;5069890;28;20044;-82
2022/01/22 03:28:39;;;;;;;7.40;2.60;;;7.70;85.40;;;;;;5069957;28;20036;-84
2022/01/22 03:31:05;;;;;;;9.15;3.42;;;7.70;85.40;;;;;;5069232;28;20490;-83
2022/01/22 03:33:30;;;;;;;5.82;2.45;;;7.70;85.30;;;;;;5075592;28;20028;-82
2022/01/22 03:35:57;;;;;;;6.45;2.38;;;7.70;85.40;;;;;;5075000;28;20068;-82
2022/01/22 03:38:24;;;;;;;6.80;2.53;;;7.70;85.30;;;;;;5070207;28;20024;-81
2022/01/22 03:40:50;;;;;;;8.38;3.10;;;7.70;85.40;;;;;;5072902;28;20113;-82
2022/01/22 03:43:17;;;;;;;5.75;2.53;;;7.70;85.30;;;;;;5073858;28;20052;-83
2022/01/22 03:45:42;;;;;;;5.18;2.30;;;7.70;85.30;;;;;;5065284;28;20127;-83
2022/01/22 03:48:08;;;;;;;5.85;2.53;;;7.70;85.30;;;;;;5076178;28;20112;-84
2022/01/22 03:50:34;;;;;;;6.10;2.60;;;7.70;85.50;;;;;;5071592;28;20060;-84
2022/01/22 03:52:59;;;;;;;6.45;2.78;;;7.70;85.50;;;;;;5070358;28;20021;-84
2022/01/22 03:56:11;;;;;;;8.25;2.65;;;7.70;85.50;;;;;;5070765;28;20021;-84
2022/01/22 03:58:11;;;;;;;5.30;2.47;;;7.70;85.50;;;;;;5069017;28;20494;-83
2022/01/22 04:00:36;;;;;;;5.95;2.97;;;7.70;85.60;;;;;;5067828;28;20032;-82
2022/01/22 04:03:29;;;;;;;6.13;2.45;;;7.60;85.60;;;;;;5071470;28;20040;-82
2022/01/22 04:08:29;;;;;;;7.30;2.80;;;7.70;85.60;;;;;;5072649;28;20029;-82
2022/01/22 04:10:55;;;;;;;8.93;2.80;;;7.60;85.60;;;;;;5069235;28;20043;-82
2022/01/22 04:13:27;;;;;;;4.10;2.20;;;7.70;85.70;;;;;;5069872;28;20027;-82
2022/01/22 04:15:53;;;;;;;6.88;2.60;;;7.70;85.70;;;;;;5069451;28;20036;-82
2022/01/22 04:26:54;;;;;;;4.57;2.22;;;7.70;85.70;;;;;;5064498;28;20122;-81
2022/01/22 04:29:24;;;;;;;5.82;2.38;;;7.80;85.70;;;;;;5071488;28;20052;-82
2022/01/22 04:31:50;;;;;;;8.52;2.60;;;7.70;85.60;;;;;;5071781;28;20016;-82
2022/01/22 04:34:16;;;;;;;6.78;3.08;;;7.70;85.60;;;;;;5070369;28;20061;-82
2022/01/22 04:36:42;;;;;;;5.22;2.10;;;7.70;85.70;;;;;;5067469;28;20389;-81
2022/01/22 04:39:08;;;;;;;4.85;2.20;;;7.80;85.70;;;;;;5070474;28;20039;-83
2022/01/22 04:41:33;;;;;;;4.20;2.10;;;7.80;85.70;;;;;;5070861;28;20025;-82
2022/01/22 04:44:02;;;;;;;5.90;2.17;;;7.80;85.60;;;;;;5067890;28;20483;-82
2022/01/22 04:49:14;;;;;;;3.67;1.83;;;7.80;85.60;;;;;;5054362;28;20029;-80
2022/01/22 04:57:07;;;;;;;5.25;1.80;;;7.90;85.60;;;;;;5070010;28;20576;-80
2022/01/22 04:59:34;;;;;;;6.38;2.40;;;7.80;85.50;;;;;;5069340;28;20025;-81
2022/01/22 05:01:59;;;;;;;5.63;1.73;;;7.80;85.40;;;;;;5061824;28;20028;-81
2022/01/22 05:04:25;;;;;;;4.88;1.80;;;7.80;85.70;;;;;;5071084;28;20056;-81
2022/01/22 05:06:51;;;;;;;7.50;2.15;;;7.80;85.70;;;;;;5062423;28;20068;-81
2022/01/22 05:09:16;;;;;;;4.88;2.05;;;7.80;85.70;;;;;;5062354;28;20017;-82
2022/01/22 05:11:42;;;;;;;5.80;2.03;;;7.80;85.70;;;;;;5068248;28;20032;-83
2022/01/22 05:14:07;;;;;;;5.45;2.15;;;7.80;85.70;;;;;;5062422;28;20368;-82
2022/01/22 05:16:33;;;;;;;2.70;1.75;;;7.80;85.70;;;;;;5068429;28;20037;-82
2022/01/22 05:19:04;;;;;;;4.90;2.00;;;7.80;85.80;;;;;;5070027;28;20525;-83
2022/01/22 05:21:33;;;;;;;5.40;1.83;;;7.80;85.80;;;;;;5070186;28;20020;-82
2022/01/22 05:24:03;;;;;;;5.68;2.10;;;7.90;85.80;;;;;;5063921;28;20509;-81
2022/01/22 05:39:24;;;;;;;3.90;1.70;;;7.90;85.70;;;;;;5065931;28;20455;-82
2022/01/22 05:41:51;;;;;;;4.57;1.60;;;7.90;85.70;;;;;;5059915;28;20052;-82
2022/01/22 05:44:17;;;;;;;2.92;1.73;;;7.90;85.80;;;;;;5059122;28;20021;-82
2022/01/22 05:46:42;;;;;;;4.68;1.77;;;7.90;85.80;;;;;;5069294;28;20357;-82
2022/01/22 05:49:08;;;;;;;3.05;1.70;;;7.90;85.80;;;;;;5064387;28;20059;-82
2022/01/22 05:51:36;;;;;;;5.72;1.70;;;7.90;85.80;;;;;;5070045;28;20025;-82
2022/01/22 05:54:30;;;;;;;4.28;1.40;;;7.90;85.70;;;;;;5063976;28;20104;-82
2022/01/22 05:59:39;;;;;;;5.18;1.67;;;7.90;85.60;;;;;;5065879;28;20039;-82
2022/01/22 06:02:05;;;;;;;3.17;1.40;;;7.90;85.70;;;;;;5067183;28;20048;-82
2022/01/22 06:04:30;;;;;;;3.90;1.50;;;7.90;85.70;;;;;;5069447;28;20815;-82
2022/01/22 06:06:56;;;;;;;5.57;1.52;;;7.90;85.80;;;;;;5061410;28;20108;-81
2022/01/22 06:09:22;;;;;;;3.35;1.70;;;7.90;85.90;;;;;;5068665;28;20433;-82
2022/01/22 06:14:19;;;;;;;3.88;1.60;;;8.00;85.80;;;;;;5065983;28;20529;-82
2022/01/22 06:16:45;;;;;;;3.17;1.77;;;8.00;85.80;;;;;;5049063;28;20037;-81
2022/01/22 06:19:11;;;;;;;3.97;1.63;;;8.00;85.80;;;;;;5067837;28;20024;-80
2022/01/22 06:21:36;;;;;;;3.97;1.70;;;8.00;85.80;;;;;;5064035;28;20037;-82
2022/01/22 06:24:02;;;;;;;3.90;2.20;;;8.00;85.80;;;;;;5069852;28;20025;-81
2022/01/22 06:26:28;;;;;;;5.22;1.75;;;8.00;85.70;;;;;;5069976;28;20028;-81
2022/01/22 06:28:53;;;;;;;4.40;1.70;;;8.00;85.70;;;;;;5077343;28;20024;-81
2022/01/22 06:31:19;;;;;;;3.95;1.73;;;8.00;85.70;;;;;;5077763;28;20032;-80
2022/01/22 06:33:44;;;;;;;4.90;1.90;;;8.00;85.70;;;;;;5072243;28;20033;-80
2022/01/22 06:36:10;;;;;;;4.07;1.90;;;8.00;85.80;;;;;;5063469;28;20117;-82
2022/01/22 06:38:35;;;;;;;3.67;1.80;;;8.00;85.80;;;;;;5066128;28;20020;-82
2022/01/22 06:43:45;;;;;;;3.67;2.10;;;8.00;85.80;;;;;;5069269;28;20063;-81
2022/01/22 06:46:11;;;;;;;3.95;2.28;;;8.00;85.80;;;;;;5067287;28;20048;-80
2022/01/22 06:48:36;;;;;;;4.10;2.30;;;8.00;85.90;;;;;;5067815;28;20033;-81
2022/01/22 06:51:02;;;;;;;2.28;2.00;;;7.90;85.80;;;;;;5064340;28;20116;-81
2022/01/22 06:53:27;;;;;;;5.85;2.50;;;7.90;85.90;;;;;;5064723;28;20063;-82
2022/01/22 06:56:04;;;;;;;4.40;2.22;;;7.90;86.00;;;;;;5067713;28;20033;-83
2022/01/22 06:58:29;;;;;;;3.53;1.80;;;7.90;86.10;;;;;;5069382;28;20020;-81
2022/01/22 07:00:55;;;;;;;3.10;2.40;;;7.90;86.10;;;;;;5066130;28;20499;-83
2022/01/22 07:03:20;;;;;;;2.22;1.90;;;7.90;86.20;;;;;;5064011;28;20019;-84
2022/01/22 07:05:46;;;;;;;4.20;2.45;;;7.90;86.20;;;;;;5066864;28;20526;-83
2022/01/22 07:08:11;;;;;;;5.68;2.55;;;7.90;86.10;;;;;;5065251;28;20523;-83
2022/01/22 07:10:37;;;;;;;4.97;2.67;;;8.00;86.20;;;;;;5066864;28;20047;-83
2022/01/22 07:13:03;;;;;;;4.97;2.58;;;7.90;86.20;;;;;;5067983;28;20064;-85
2022/01/22 07:15:28;;;;;;;3.38;2.33;;;8.00;86.30;;;;;;5066594;28;20036;-87
2022/01/22 07:17:55;;;;;;;4.28;2.42;;;7.90;86.30;;;;;;5065702;28;20028;-84
2022/01/22 07:20:34;;;;;;;3.78;2.20;;;7.90;86.30;;;;;;5065282;28;20024;-84
2022/01/22 07:23:13;;;;;;;3.58;2.30;;;7.90;86.40;;;;;;5063233;28;20101;-82
2022/01/22 07:25:39;;;;;;;4.47;2.63;;;7.90;86.40;;;;;;5067838;28;20135;-82
2022/01/22 07:28:05;;;;;;;5.47;2.50;;;7.90;86.50;;;;;;5082154;28;20020;-83
2022/01/22 07:30:31;;;;;;;3.40;2.15;;;7.90;86.60;;;;;;5083460;28;20030;-82
2022/01/22 07:32:57;;;;;;;3.38;2.10;;;7.90;86.70;;;;;;5078073;28;20016;-83
2022/01/22 07:35:22;;;;;;;5.45;2.70;;;7.90;86.70;;;;;;5073848;28;20021;-83
2022/01/22 07:37:48;;;;;;;4.43;2.15;;;7.90;86.70;;;;;;5071558;28;20403;-84
2022/01/22 07:40:13;;;;;;;3.33;1.90;;;7.90;86.70;;;;;;5072942;28;20363;-85
2022/01/22 07:42:40;;;;;;;4.97;2.22;;;7.90;86.70;;;;;;5075278;28;20036;-83
2022/01/22 07:45:07;;;;;;;6.07;2.38;;;7.90;86.80;;;;;;5071970;28;20028;-82
2022/01/22 07:47:32;;;;;;;4.43;2.10;;;7.90;86.80;;;;;;5072257;28;20459;-82
2022/01/22 07:49:58;;;;;;;5.97;2.15;;;7.90;86.90;;;;;;5062413;28;20017;-83
2022/01/22 07:52:24;;;;;;;4.68;1.92;;;7.90;86.90;;;;;;5062625;28;20032;-83
2022/01/22 07:54:50;;;;;;;4.57;2.00;;;8.00;87.00;;;;;;5069640;28;20723;-82
2022/01/22 07:57:16;;;;;;;4.72;1.90;;;8.00;86.90;;;;;;5065578;28;20017;-82
2022/01/22 07:59:41;;;;;;;5.65;2.50;;;8.00;86.90;;;;;;5062797;28;20029;-85
2022/01/22 08:02:07;;;;;;;2.38;1.50;;;8.00;86.80;;;;;;5065947;28;20033;-83
2022/01/22 08:04:33;;;;;;;4.22;1.98;;;8.00;86.80;;;;;;5068468;28;20437;-80
2022/01/22 08:07:01;;;;;;;3.22;1.67;;;8.00;86.90;;;;;;5079803;28;20038;-81
2022/01/22 08:09:26;;;;;;;4.00;1.80;;;8.00;86.90;;;;;;5076506;28;20515;-80
2022/01/22 08:11:52;;;;;;;5.28;1.90;;;8.00;86.90;;;;;;5080927;28;20115;-80
2022/01/22 08:14:18;;;;;;;6.07;2.08;;;8.00;86.90;;;;;;5076342;28;20127;-80
2022/01/22 08:16:47;;;;;;;3.45;1.80;;;8.00;86.90;;;;;;5078620;28;20490;-80
2022/01/22 08:19:14;;;;;;;4.75;1.92;;;8.00;87.00;;;;;;5077561;28;20496;-80
2022/01/22 08:21:40;;;;;;;4.07;1.88;;;8.00;86.90;;;;;;5082018;28;20510;-81
2022/01/22 08:24:06;;;;;;;3.60;1.80;;;8.00;86.90;;;;;;5075358;28;20432;-81
2022/01/22 08:26:37;;;;;;;5.45;2.22;;;8.00;86.80;;;;;;5077160;28;20050;-82
2022/01/22 08:29:03;;;;;;;5.32;1.90;;;8.00;86.90;;;;;;5071074;28;20526;-82
2022/01/22 08:36:40;;;;;;;5.45;1.60;;;8.10;86.80;;;;;;5068637;28;20048;-80
2022/01/22 08:39:06;;;;;;;2.90;1.42;;;8.20;86.80;;;;;;5071830;28;20012;-80
2022/01/22 08:41:33;;;;;;;4.72;2.13;;;8.10;86.70;;;;;;5075124;28;20024;-81
2022/01/22 08:44:00;;;;;;;4.40;1.88;;;8.20;86.70;;;;;;5071170;28;20021;-81
2022/01/22 08:46:26;;;;;;;4.28;1.80;;;8.20;86.70;;;;;;5066280;28;20105;-80
2022/01/22 08:48:52;;;;;;;5.75;1.80;;;8.20;86.70;;;;;;5073511;28;20025;-81
2022/01/22 08:51:17;;;;;;;2.97;1.70;;;8.20;86.70;;;;;;5071944;28;20025;-80
2022/01/22 08:53:43;;;;;;;4.95;1.80;;;8.20;86.70;;;;;;5063913;28;20055;-81
2022/01/22 08:56:09;;;;;;;3.08;1.52;;;8.20;86.60;;;;;;5065170;28;20032;-81
2022/01/22 08:58:35;;;;;;;6.60;2.13;;;8.20;86.60;;;;;;5059036;28;20017;-80
2022/01/22 09:01:01;;;;;;;7.22;2.20;;;8.20;86.50;;;;;;5078064;28;20070;-81
2022/01/22 09:03:27;;;;;;;3.70;1.80;;;8.20;86.50;;;;;;5067908;28;20397;-80
2022/01/22 09:05:54;;;;;;;5.40;2.20;;;8.20;86.50;;;;;;5080284;28;20028;-81
2022/01/22 09:08:20;;;;;;;4.38;1.67;;;8.20;86.40;;;;;;5071598;28;20800;-81
2022/01/22 09:10:46;;;;;;;5.63;2.00;;;8.20;86.40;;;;;;5077278;28;20028;-78
2022/01/22 09:13:12;;;;;;;3.20;1.60;;;8.20;86.50;;;;;;5077190;28;20020;-78
2022/01/22 09:15:38;;;;;;;5.75;1.85;;;8.20;86.50;;;;;;5066926;28;20048;-78
2022/01/22 09:18:06;;;;;;;2.03;1.40;;;8.20;86.40;;;;;;5068381;28;20060;-77
2022/01/22 09:23:05;;;;;;;5.18;1.92;;;8.20;86.90;;;;;;5072211;28;20123;-77
2022/01/22 09:25:31;;;;;;;4.80;2.08;;;8.30;86.30;;;;;;5067167;28;20040;-76
2022/01/22 09:27:57;;;;;;;4.40;1.73;;;8.20;86.20;;;;;;5072879;28;20020;-77
2022/01/22 09:30:23;;;;;;;3.38;1.95;;;8.20;86.30;;;;;;5071863;28;20055;-75
2022/01/22 09:32:49;;;;;;;4.10;2.00;;;8.30;86.40;;;;;;5066382;28;20062;-77
2022/01/22 09:35:14;;;;;;;3.80;1.60;;;8.20;86.40;;;;;;5069835;28;20036;-76
2022/01/22 09:37:40;;;;;;;3.78;1.67;;;8.20;86.40;;;;;;5066046;28;20092;-77
2022/01/22 09:40:07;;;;;;;3.78;1.63;;;8.30;86.40;;;;;;5071838;28;20360;-77
2022/01/22 09:42:33;;;;;;;4.10;1.70;;;8.30;86.30;;;;;;5065192;28;20028;-77
2022/01/22 09:44:58;;;;;;;2.67;1.60;;;8.30;86.30;;;;;;5071774;28;20162;-77
2022/01/22 09:47:24;;;;;;;4.85;2.10;;;8.30;86.20;;;;;;5070576;28;20490;-76
2022/01/22 09:49:50;;;;;;;4.00;1.90;;;8.30;86.20;;;;;;5069157;28;20016;-77
2022/01/22 09:52:16;;;;;;;2.88;1.60;;;8.30;86.30;;;;;;5078177;28;20029;-77
2022/01/22 09:54:41;;;;;;;4.25;1.70;;;8.30;86.80;;;;;;5081685;28;20052;-76
2022/01/22 09:57:09;;;;;;;3.13;1.67;;;8.30;86.20;;;;;;5077126;28;20541;-78
2022/01/22 09:59:35;;;;;;;3.78;1.70;;;8.40;86.30;;;;;;5068744;28;20025;-77
2022/01/22 10:02:12;;;;;;;6.07;1.80;;;8.40;86.20;;;;;;5072630;28;20533;-77
2022/01/22 10:04:40;;;;;;;4.53;1.70;;;8.40;86.20;;;;;;5064575;28;20144;-78
2022/01/22 10:07:21;;;;;;;5.13;2.35;;;8.40;86.20;;;;;;5059522;28;20036;-78
2022/01/22 10:10:04;;;;;;;4.82;2.38;;;8.40;86.20;;;;;;5064904;28;20528;-78
2022/01/22 10:12:41;;;;;;;3.97;2.38;;;8.40;86.10;;;;;;5067459;28;20024;-78
2022/01/22 10:15:11;;;;;;;4.45;2.20;;;8.30;86.00;;;;;;5057893;28;20547;-78
2022/01/22 10:17:53;;;;;;;4.28;2.40;;;8.40;86.10;;;;;;5056342;28;20044;-78
2022/01/22 10:20:22;;;;;;;4.60;2.28;;;8.40;86.10;;;;;;5061117;28;20017;-77
2022/01/22 10:22:52;;;;;;;4.90;2.13;;;8.40;86.10;;;;;;5060232;28;20025;-76
2022/01/22 10:25:36;;;;;;;4.40;2.28;;;8.40;86.10;;;;;;5070361;28;20779;-76
2022/01/22 10:28:09;;;;;;;3.97;2.20;;;8.40;86.10;;;;;;5060834;28;20024;-77
2022/01/22 10:30:39;;;;;;;4.32;2.10;;;8.40;86.10;;;;;;5059399;28;20031;-78
2022/01/22 10:33:34;;;;;;;3.53;2.00;;;8.40;86.00;;;;;;5057425;28;20028;-76
2022/01/22 10:36:18;;;;;;;4.65;2.30;;;8.40;86.00;;;;;;5063482;28;20044;-76
2022/01/22 10:38:52;;;;;;;3.20;2.10;;;8.40;86.00;;;;;;5059675;28;20033;-74
2022/01/22 10:41:42;;;;;;;5.60;2.55;;;8.40;86.00;;;;;;5059615;28;20036;-76
2022/01/22 10:44:10;;;;;;;5.22;2.30;;;8.40;86.00;;;;;;5061119;28;20035;-76
2022/01/22 10:46:48;;;;;;;6.32;2.50;;;8.50;86.00;;;;;;5064651;28;20396;-76
2022/01/22 10:49:26;;;;;;;5.40;2.30;;;8.50;85.90;;;;;;5056663;28;20024;-78
2022/01/22 10:52:00;;;;;;;4.50;2.20;;;8.50;86.00;;;;;;5058892;28;20104;-76
2022/01/22 10:54:28;;;;;;;3.35;1.70;;;8.40;85.80;;;;;;5058393;28;20017;-77
2022/01/22 10:57:11;;;;;;;3.88;2.15;;;8.40;86.00;;;;;;5060497;28;20060;-77
2022/01/22 10:59:36;;;;;;;;;;;8.40;86.00;;;;;;5058723;28;20032;-76
2022/01/22 11:02:04;;;;;;;5.28;2.10;;;8.40;85.90;;;;;;5065631;28;19908;-75
2022/01/22 11:04:40;;;;;;;5.75;1.88;;;8.30;86.00;;;;;;5063881;28;20089;-78
2022/01/22 11:07:16;;;;;;;3.38;2.10;;;8.40;86.10;;;;;;5059258;28;20024;-76
2022/01/22 11:09:42;;;;;;;3.47;2.25;;;8.40;86.10;;;;;;5065457;28;20106;-76
2022/01/22 11:12:08;;;;;;;6.72;3.42;;;8.40;86.00;;;;;;5073669;28;20021;-77
2022/01/22 11:14:37;;;;;;;5.38;2.80;;;8.50;86.00;;;;;;5068929;28;20392;-77
2022/01/22 11:17:06;;;;;;;4.47;2.10;;;8.50;86.00;;;;;;5063735;28;20024;-76
2022/01/22 11:19:33;;;;;;;3.33;2.15;;;8.50;85.90;;;;;;5071382;28;20020;-75
2022/01/22 11:22:08;;;;;;;5.07;2.30;;;8.60;85.90;;;;;;5062268;28;20052;-76
2022/01/22 11:24:45;;;;;;;4.43;1.95;;;8.50;85.70;;;;;;5065529;28;20051;-79
2022/01/22 11:27:13;;;;;;;3.97;1.98;;;8.50;85.70;;;;;;5069506;28;20052;-77
2022/01/22 11:29:53;;;;;;;5.30;2.20;;;8.50;85.70;;;;;;5067170;28;20028;-77
2022/01/22 11:32:31;;;;;;;6.30;2.10;;;8.60;85.70;;;;;;5066897;28;20136;-77
2022/01/22 11:35:00;;;;;;;3.97;2.08;;;8.50;85.50;;;;;;5063924;28;20028;-76
2022/01/22 11:37:45;;;;;;;2.20;1.80;;;8.50;85.60;;;;;;5068100;28;20731;-77
2022/01/22 11:40:15;;;;;;;5.15;1.77;;;8.50;85.60;;;;;;5064484;28;20024;-77
2022/01/22 11:43:07;;;;;;;3.97;1.67;;;8.50;85.60;;;;;;5065239;28;20124;-77
2022/01/22 11:45:36;;;;;;;5.90;2.38;;;8.50;85.70;;;;;;5070505;28;20064;-77
2022/01/22 11:48:28;;;;;;;3.55;2.00;;;8.50;85.60;;;;;;5056431;28;20043;-78
2022/01/22 11:51:23;;;;;;;3.17;2.00;;;8.50;85.60;;;;;;5064614;28;20066;-78
2022/01/22 11:53:57;;;;;;;3.35;1.80;;;8.50;85.60;;;;;;5066756;28;20025;-79
2022/01/22 11:56:25;;;;;;;3.20;1.92;;;8.50;85.60;;;;;;5070781;28;20392;-78
2022/01/22 11:58:57;;;;;;;5.93;3.15;;;8.50;85.50;;;;;;5071340;28;20371;-78
2022/01/22 12:01:40;;;;;;;6.22;2.30;;;8.50;85.50;;;;;;5072361;28;20041;-78
2022/01/22 12:04:08;;;;;;;3.25;2.10;;;8.60;85.50;;;;;;5066315;28;20025;-78
2022/01/22 12:06:34;;;;;;;4.20;2.03;;;8.50;85.30;;;;;;5068784;28;20020;-78
2022/01/22 12:09:06;;;;;;;4.43;1.92;;;8.60;85.30;;;;;;5068044;28;20470;-78
2022/01/22 12:14:53;;;;;;;3.97;2.10;;;8.60;85.20;;;;;;5065105;28;20044;-78
2022/01/22 12:17:40;;;;;;;4.80;2.20;;;8.60;85.20;;;;;;5056796;28;20094;-78
2022/01/22 12:20:18;;;;;;;5.88;2.10;;;8.70;85.20;;;;;;5056950;28;20047;-78
2022/01/22 12:22:44;;;;;;;4.25;2.10;;;8.70;85.00;;;;;;5062021;28;20028;-78
2022/01/22 12:25:09;;;;;;;5.45;2.40;;;8.70;85.00;;;;;;5071219;28;20470;-78
2022/01/22 12:27:43;;;;;;;3.63;1.98;;;8.70;84.90;;;;;;5073396;28;20530;-77
2022/01/22 12:30:09;;;;;;;3.03;2.00;;;8.80;85.00;;;;;;5064117;28;20029;-78
2022/01/22 12:32:48;;;;;;;5.07;2.15;;;8.80;84.90;;;;;;5070280;28;20542;-77
2022/01/22 12:35:17;;;;;;;5.10;2.10;;;8.80;84.70;;;;;;5071427;28;20502;-77
2022/01/22 12:37:47;;;;;;;4.88;2.40;;;8.80;84.50;;;;;;5071462;28;20040;-78
2022/01/22 12:40:23;;;;;;;4.10;2.05;;;8.80;84.60;;;;;;5067081;28;20056;-77
2022/01/22 12:43:08;;;;;;;3.47;2.20;;;8.80;84.50;;;;;;5069798;28;20037;-78
2022/01/22 12:45:35;;;;;;;3.42;2.10;;;8.80;84.50;;;;;;5069491;28;20031;-78
2022/01/22 12:48:02;;;;;;;2.50;1.90;;;8.90;84.50;;;;;;5069594;28;20115;-78
2022/01/22 12:50:31;;;;;;;4.50;2.20;;;8.90;84.40;;;;;;5070704;28;20035;-77
2022/01/22 12:53:03;;;;;;;5.63;2.40;;;8.90;84.30;;;;;;5063046;28;20052;-78
2022/01/22 12:56:00;;;;;;;4.47;2.10;;;8.90;84.30;;;;;;5059810;28;20036;-77
2022/01/22 12:58:27;;;;;;;2.58;1.90;;;8.90;84.30;;;;;;5061688;28;20033;-78
2022/01/22 13:01:14;;;;;;;3.83;2.28;;;9.00;84.30;;;;;;5059024;28;20082;-78
2022/01/22 13:03:43;;;;;;;3.45;2.10;;;8.90;84.10;;;;;;5061009;28;20025;-77
2022/01/22 13:06:09;;;;;;;3.10;2.00;;;9.00;84.10;;;;;;5062858;28;20024;-78
2022/01/22 13:08:35;;;;;;;3.17;2.30;;;9.00;84.00;;;;;;5067029;28;20046;-77
2022/01/22 13:11:04;;;;;;;3.60;2.10;;;9.00;83.90;;;;;;5067765;28;20402;-78
2022/01/22 13:13:31;;;;;;;4.90;2.17;;;8.90;83.90;;;;;;5074759;28;20034;-78
2022/01/22 13:16:17;;;;;;;2.88;2.00;;;9.00;83.90;;;;;;5060616;28;20672;-78
2022/01/22 13:18:58;;;;;;;3.92;2.13;;;9.00;83.80;;;;;;5064642;28;20024;-79
2022/01/22 13:21:26;;;;;;;3.88;2.30;;;9.00;83.70;;;;;;5057684;28;20032;-79
2022/01/22 13:24:07;;;;;;;3.38;2.00;;;8.90;83.70;;;;;;5068284;28;20071;-78
2022/01/22 13:26:41;;;;;;;4.85;2.33;;;9.00;83.70;;;;;;5068561;28;20028;-80
2022/01/22 13:29:20;;;;;;;3.30;2.00;;;8.90;83.60;;;;;;5069584;28;20112;-80
2022/01/22 13:34:56;;;;;;;4.30;2.55;;;9.00;83.70;;;;;;5069505;28;20028;-79
2022/01/22 13:48:24;;;;;;;4.47;2.80;;;9.00;83.60;;;;;;5062686;28;20667;-78
2022/01/22 13:50:49;;;;;;;4.93;3.25;;;9.00;83.50;;;;;;5053945;28;20086;-76
2022/01/22 13:53:15;;;;;;;4.57;3.05;;;9.00;83.50;;;;;;5058674;28;20029;-77
2022/01/22 13:55:41;;;;;;;4.45;3.10;;;9.00;83.50;;;;;;5068452;28;20037;-78
2022/01/22 13:58:17;;;;;;;5.80;3.67;;;9.00;83.50;;;;;;5060724;28;20024;-78
2022/01/22 14:00:43;;;;;;;8.40;3.50;;;9.00;83.40;;;;;;5061748;28;20078;-76
2022/01/22 14:05:51;;;;;;;4.63;3.22;;;9.00;83.60;;;;;;5066499;28;20139;-80
2022/01/22 14:08:33;;;;;;;6.85;3.88;;;9.00;83.50;;;;;;5063453;28;20020;-78
2022/01/22 14:11:13;;;;;;;4.67;3.30;;;8.90;83.50;;;;;;5061488;28;20055;-77
2022/01/22 14:13:40;;;;;;;5.80;3.33;;;9.00;83.40;;;;;;5063175;28;20025;-75
2022/01/22 14:16:22;;;;;;;7.68;4.05;;;8.90;83.50;;;;;;5065074;28;20604;-76
2022/01/22 14:18:48;;;;;;;5.40;3.60;;;8.90;83.50;;;;;;5059765;28;20118;-75
2022/01/22 14:21:20;;;;;;;7.38;4.25;;;8.90;83.50;;;;;;5066933;28;20051;-74
2022/01/22 14:23:47;;;;;;;7.50;4.35;;;8.90;83.60;;;;;;5067554;28;20107;-75
2022/01/22 14:26:31;;;;;;;7.40;4.03;;;8.90;83.60;;;;;;5068379;28;20036;-76
2022/01/22 14:29:01;;;;;;;5.70;4.13;;;8.90;83.60;;;;;;5074979;28;20032;-76
2022/01/22 14:31:33;;;;;;;8.05;4.80;;;8.90;83.50;;;;;;5069436;28;20021;-75
2022/01/22 14:34:11;;;;;;;70.80;37.15;;;8.90;83.60;;;;;;5074794;28;20028;-75
2022/01/22 14:36:41;;;;;;;49.85;29.73;;;8.90;83.60;;;;;;5067440;28;20036;-76
2022/01/22 14:39:27;;;;;;;29.02;18.05;;;8.90;83.60;;;;;;5062194;28;20021;-75
2022/01/22 14:44:44;;;;;;;48.42;30.25;;;9.00;83.50;;;;;;5063686;28;20404;-74
2022/01/22 14:47:16;;;;;;;25.80;15.52;;;9.00;83.50;;;;;;5055004;28;20593;-74
2022/01/22 14:49:44;;;;;;;17.03;12.20;;;9.00;83.50;;;;;;5071094;28;20043;-74
2022/01/22 14:52:12;;;;;;;12.38;7.00;;;9.00;83.40;;;;;;5072785;28;20035;-75
2022/01/22 14:54:43;;;;;;;42.92;28.70;;;9.00;83.30;;;;;;5066024;28;20024;-74
2022/01/22 14:57:10;;;;;;;16.63;11.95;;;9.00;83.30;;;;;;5066459;28;20059;-74
2022/01/22 14:59:38;;;;;;;13.43;9.02;;;9.10;83.40;;;;;;5065911;28;20419;-75
2022/01/22 15:02:05;;;;;;;11.88;6.68;;;9.10;83.30;;;;;;5065013;28;20052;-77
2022/01/22 15:04:32;;;;;;;15.40;10.68;;;9.00;83.30;;;;;;5067309;28;20098;-76
2022/01/22 15:07:00;;;;;;;13.73;9.55;;;9.00;83.40;;;;;;5065232;28;20016;-74
2022/01/22 15:09:27;;;;;;;17.58;10.15;;;9.00;83.40;;;;;;5061540;28;20100;-74